sensor_id;sensor_type;location;lat;lon;timestamp;temperature;humidity
14749;DHT22;7466;53.574;9.976;2023-04-06T00:01:01;3.60;99.90
14749;DHT22;7466;53.574;9.976;2023-04-06T00:03:28;3.50;99.90
14749;DHT22;7466;53.574;9.976;2023-04-06T00:05:55;3.50;99.90
14749;DHT22;7466;53.574;9.976;2023-04-06T00:08:22;3.40;99.90
14749;DHT22;7466;53.574;9.976;2023-04-06T00:10:51;3.40;99.90
14749;DHT22;7466;53.574;9.976;2023-04-06T00:13:18;3.40;99.90
14749;DHT22;7466;53.574;9.976;2023-04-06T00:15:45;3.30;99.90
14749;DHT22;7466;53.574;9.976;2023-04-06T00:18:12;3.20;99.90
14749;DHT22;7466;53.574;9.976;2023-04-06T00:20:39;3.20;99.90
14749;DHT22;7466;53.574;9.976;2023-04-06T00:23:06;3.20;99.90
14749;DHT22;7466;53.574;9.976;2023-04-06T00:25:33;3.10;99.90
14749;DHT22;7466;53.574;9.976;2023-04-06T00:28:02;3.10;99.90
14749;DHT22;7466;53.574;9.976;2023-04-06T00:30:29;3.10;99.90
14749;DHT22;7466;53.574;9.976;2023-04-06T00:32:58;3.10;99.90
14749;DHT22;7466;53.574;9.976;2023-04-06T00:35:26;3.10;99.90
14749;DHT22;7466;53.574;9.976;2023-04-06T00:37:53;3.10;99.90
14749;DHT22;7466;53.574;9.976;2023-04-06T00:40:20;3.10;99.90
14749;DHT22;7466;53.574;9.976;2023-04-06T00:42:47;3.10;99.90
14749;DHT22;7466;53.574;9.976;2023-04-06T00:45:16;3.00;99.90
14749;DHT22;7466;53.574;9.976;2023-04-06T00:47:43;3.00;99.90
14749;DHT22;7466;53.574;9.976;2023-04-06T00:50:10;3.00;99.90
14749;DHT22;7466;53.574;9.976;2023-04-06T00:52:37;3.00;99.90
14749;DHT22;7466;53.574;9.976;2023-04-06T00:55:04;3.00;99.90
14749;DHT22;7466;53.574;9.976;2023-04-06T00:57:32;2.80;99.90
14749;DHT22;7466;53.574;9.976;2023-04-06T00:59:58;2.80;99.90
14749;DHT22;7466;53.574;9.976;2023-04-06T01:02:27;2.80;99.90
14749;DHT22;7466;53.574;9.976;2023-04-06T01:04:56;2.80;99.90
14749;DHT22;7466;53.574;9.976;2023-04-06T01:07:23;2.80;99.90
14749;DHT22;7466;53.574;9.976;2023-04-06T01:09:52;2.80;99.90
14749;DHT22;7466;53.574;9.976;2023-04-06T01:12:19;2.80;99.90
14749;DHT22;7466;53.574;9.976;2023-04-06T01:14:46;2.70;99.90
14749;DHT22;7466;53.574;9.976;2023-04-06T01:17:13;2.70;99.90
14749;DHT22;7466;53.574;9.976;2023-04-06T01:19:42;2.70;99.90
14749;DHT22;7466;53.574;9.976;2023-04-06T01:22:15;2.70;99.90
14749;DHT22;7466;53.574;9.976;2023-04-06T01:24:42;2.70;99.90
14749;DHT22;7466;53.574;9.976;2023-04-06T01:27:09;2.60;99.90
14749;DHT22;7466;53.574;9.976;2023-04-06T01:29:36;2.70;99.90
14749;DHT22;7466;53.574;9.976;2023-04-06T01:32:06;2.70;99.90
14749;DHT22;7466;53.574;9.976;2023-04-06T01:34:33;2.70;99.90
14749;DHT22;7466;53.574;9.976;2023-04-06T01:37:00;2.70;99.90
14749;DHT22;7466;53.574;9.976;2023-04-06T01:39:29;2.70;99.90
14749;DHT22;7466;53.574;9.976;2023-04-06T01:41:56;2.70;99.90
14749;DHT22;7466;53.574;9.976;2023-04-06T01:44:23;2.70;99.90
14749;DHT22;7466;53.574;9.976;2023-04-06T01:46:50;2.60;99.90
14749;DHT22;7466;53.574;9.976;2023-04-06T01:49:17;2.60;99.90
14749;DHT22;7466;53.574;9.976;2023-04-06T01:51:44;2.60;99.90
14749;DHT22;7466;53.574;9.976;2023-04-06T01:54:11;2.60;99.90
14749;DHT22;7466;53.574;9.976;2023-04-06T01:56:40;2.60;99.90
14749;DHT22;7466;53.574;9.976;2023-04-06T01:59:07;2.70;99.90
14749;DHT22;7466;53.574;9.976;2023-04-06T02:01:34;2.70;99.90
14749;DHT22;7466;53.574;9.976;2023-04-06T02:04:01;2.60;99.90
14749;DHT22;7466;53.574;9.976;2023-04-06T02:06:28;2.60;99.90
14749;DHT22;7466;53.574;9.976;2023-04-06T02:08:55;2.60;99.90
14749;DHT22;7466;53.574;9.976;2023-04-06T02:11:22;2.60;99.90
14749;DHT22;7466;53.574;9.976;2023-04-06T02:13:51;2.60;99.90
14749;DHT22;7466;53.574;9.976;2023-04-06T02:16:18;2.60;99.90
14749;DHT22;7466;53.574;9.976;2023-04-06T02:18:44;2.60;99.90
14749;DHT22;7466;53.574;9.976;2023-04-06T02:21:11;2.60;99.90
14749;DHT22;7466;53.574;9.976;2023-04-06T02:23:39;2.60;99.90
14749;DHT22;7466;53.574;9.976;2023-04-06T02:26:06;2.60;99.90
14749;DHT22;7466;53.574;9.976;2023-04-06T02:28:33;2.60;99.90
14749;DHT22;7466;53.574;9.976;2023-04-06T02:31:01;2.60;99.90
14749;DHT22;7466;53.574;9.976;2023-04-06T02:33:29;2.60;99.90
14749;DHT22;7466;53.574;9.976;2023-04-06T02:35:56;2.60;99.90
14749;DHT22;7466;53.574;9.976;2023-04-06T02:38:23;2.60;99.90
14749;DHT22;7466;53.574;9.976;2023-04-06T02:40:50;2.60;99.90
14749;DHT22;7466;53.574;9.976;2023-04-06T02:43:17;2.50;99.90
14749;DHT22;7466;53.574;9.976;2023-04-06T02:45:44;2.50;99.90
14749;DHT22;7466;53.574;9.976;2023-04-06T02:48:12;2.50;99.90
14749;DHT22;7466;53.574;9.976;2023-04-06T02:50:39;2.50;99.90
14749;DHT22;7466;53.574;9.976;2023-04-06T02:53:06;2.50;99.90
14749;DHT22;7466;53.574;9.976;2023-04-06T02:55:33;2.50;99.90
14749;DHT22;7466;53.574;9.976;2023-04-06T02:58:00;2.40;99.90
14749;DHT22;7466;53.574;9.976;2023-04-06T03:00:27;2.40;99.90
14749;DHT22;7466;53.574;9.976;2023-04-06T03:02:54;2.40;99.90
14749;DHT22;7466;53.574;9.976;2023-04-06T03:05:22;2.40;99.90
14749;DHT22;7466;53.574;9.976;2023-04-06T03:07:49;2.40;99.90
14749;DHT22;7466;53.574;9.976;2023-04-06T03:10:17;2.40;99.90
14749;DHT22;7466;53.574;9.976;2023-04-06T03:12:44;2.50;99.90
14749;DHT22;7466;53.574;9.976;2023-04-06T03:15:11;2.60;99.90
14749;DHT22;7466;53.574;9.976;2023-04-06T03:17:38;2.60;99.90
14749;DHT22;7466;53.574;9.976;2023-04-06T03:20:06;2.70;99.90
14749;DHT22;7466;53.574;9.976;2023-04-06T03:22:34;2.70;99.90
14749;DHT22;7466;53.574;9.976;2023-04-06T03:25:01;2.60;99.90
14749;DHT22;7466;53.574;9.976;2023-04-06T03:27:28;2.70;99.90
14749;DHT22;7466;53.574;9.976;2023-04-06T03:29:56;2.70;99.90
14749;DHT22;7466;53.574;9.976;2023-04-06T03:32:23;2.60;99.90
14749;DHT22;7466;53.574;9.976;2023-04-06T03:34:50;2.60;99.90
14749;DHT22;7466;53.574;9.976;2023-04-06T03:37:17;2.50;99.90
14749;DHT22;7466;53.574;9.976;2023-04-06T03:39:45;2.50;99.90
14749;DHT22;7466;53.574;9.976;2023-04-06T03:42:12;2.50;99.90
14749;DHT22;7466;53.574;9.976;2023-04-06T03:44:41;2.40;99.90
14749;DHT22;7466;53.574;9.976;2023-04-06T03:47:08;2.40;99.90
14749;DHT22;7466;53.574;9.976;2023-04-06T03:49:35;2.30;99.90
14749;DHT22;7466;53.574;9.976;2023-04-06T03:52:02;2.30;99.90
14749;DHT22;7466;53.574;9.976;2023-04-06T03:54:29;2.30;99.90
14749;DHT22;7466;53.574;9.976;2023-04-06T03:56:57;2.30;99.90
14749;DHT22;7466;53.574;9.976;2023-04-06T03:59:24;2.30;99.90
14749;DHT22;7466;53.574;9.976;2023-04-06T04:01:51;2.30;99.90
14749;DHT22;7466;53.574;9.976;2023-04-06T04:04:18;2.30;99.90
14749;DHT22;7466;53.574;9.976;2023-04-06T04:06:45;2.40;99.90
14749;DHT22;7466;53.574;9.976;2023-04-06T04:09:12;2.40;99.90
14749;DHT22;7466;53.574;9.976;2023-04-06T04:11:39;2.30;99.90
14749;DHT22;7466;53.574;9.976;2023-04-06T04:14:08;2.30;99.90
14749;DHT22;7466;53.574;9.976;2023-04-06T04:16:35;2.20;99.90
14749;DHT22;7466;53.574;9.976;2023-04-06T04:19:02;2.20;99.90
14749;DHT22;7466;53.574;9.976;2023-04-06T04:21:29;2.20;99.90
14749;DHT22;7466;53.574;9.976;2023-04-06T04:23:57;2.20;99.90
14749;DHT22;7466;53.574;9.976;2023-04-06T04:26:24;2.10;99.90
14749;DHT22;7466;53.574;9.976;2023-04-06T04:28:51;2.10;99.90
14749;DHT22;7466;53.574;9.976;2023-04-06T04:31:20;2.00;99.90
14749;DHT22;7466;53.574;9.976;2023-04-06T04:33:48;2.00;99.90
14749;DHT22;7466;53.574;9.976;2023-04-06T04:36:15;2.00;99.90
14749;DHT22;7466;53.574;9.976;2023-04-06T04:38:42;1.90;99.90
14749;DHT22;7466;53.574;9.976;2023-04-06T04:41:09;1.90;99.90
14749;DHT22;7466;53.574;9.976;2023-04-06T04:43:36;1.90;99.90
14749;DHT22;7466;53.574;9.976;2023-04-06T04:46:04;1.80;99.90
14749;DHT22;7466;53.574;9.976;2023-04-06T04:48:33;1.80;99.90
14749;DHT22;7466;53.574;9.976;2023-04-06T04:51:00;1.70;99.90
14749;DHT22;7466;53.574;9.976;2023-04-06T04:53:28;1.70;99.90
14749;DHT22;7466;53.574;9.976;2023-04-06T04:55:55;1.70;99.90
14749;DHT22;7466;53.574;9.976;2023-04-06T04:58:22;1.60;99.90
14749;DHT22;7466;53.574;9.976;2023-04-06T05:00:49;1.60;99.90
14749;DHT22;7466;53.574;9.976;2023-04-06T05:03:20;1.60;99.90
14749;DHT22;7466;53.574;9.976;2023-04-06T05:05:49;1.50;99.90
14749;DHT22;7466;53.574;9.976;2023-04-06T05:08:16;1.50;99.90
14749;DHT22;7466;53.574;9.976;2023-04-06T05:10:43;1.50;99.90
14749;DHT22;7466;53.574;9.976;2023-04-06T05:13:12;1.40;99.90
14749;DHT22;7466;53.574;9.976;2023-04-06T05:15:40;1.40;99.90
14749;DHT22;7466;53.574;9.976;2023-04-06T05:18:08;1.40;99.90
14749;DHT22;7466;53.574;9.976;2023-04-06T05:20:35;1.40;99.90
14749;DHT22;7466;53.574;9.976;2023-04-06T05:23:04;1.50;99.90
14749;DHT22;7466;53.574;9.976;2023-04-06T05:25:32;1.50;99.90
14749;DHT22;7466;53.574;9.976;2023-04-06T05:27:59;1.50;99.90
14749;DHT22;7466;53.574;9.976;2023-04-06T05:30:29;1.60;99.90
14749;DHT22;7466;53.574;9.976;2023-04-06T05:33:06;1.60;99.90
14749;DHT22;7466;53.574;9.976;2023-04-06T05:35:33;1.60;99.90
14749;DHT22;7466;53.574;9.976;2023-04-06T05:38:00;1.70;99.90
14749;DHT22;7466;53.574;9.976;2023-04-06T05:40:29;1.70;99.90
14749;DHT22;7466;53.574;9.976;2023-04-06T05:42:57;1.70;99.90
14749;DHT22;7466;53.574;9.976;2023-04-06T05:45:24;1.80;99.90
14749;DHT22;7466;53.574;9.976;2023-04-06T05:47:52;1.90;99.90
14749;DHT22;7466;53.574;9.976;2023-04-06T05:50:19;1.90;99.90
14749;DHT22;7466;53.574;9.976;2023-04-06T05:52:47;2.00;99.90
14749;DHT22;7466;53.574;9.976;2023-04-06T05:55:18;2.00;99.90
14749;DHT22;7466;53.574;9.976;2023-04-06T05:57:50;2.00;99.90
14749;DHT22;7466;53.574;9.976;2023-04-06T06:00:17;2.00;99.90
14749;DHT22;7466;53.574;9.976;2023-04-06T06:02:45;2.10;99.90
14749;DHT22;7466;53.574;9.976;2023-04-06T06:05:12;2.20;99.90
14749;DHT22;7466;53.574;9.976;2023-04-06T06:07:40;2.20;99.90
14749;DHT22;7466;53.574;9.976;2023-04-06T06:10:08;2.30;99.90
14749;DHT22;7466;53.574;9.976;2023-04-06T06:12:35;2.40;99.90
14749;DHT22;7466;53.574;9.976;2023-04-06T06:15:04;2.50;99.90
14749;DHT22;7466;53.574;9.976;2023-04-06T06:17:31;2.50;99.90
14749;DHT22;7466;53.574;9.976;2023-04-06T06:19:59;2.60;99.90
14749;DHT22;7466;53.574;9.976;2023-04-06T06:22:25;2.80;99.90
14749;DHT22;7466;53.574;9.976;2023-04-06T06:24:53;2.90;99.90
14749;DHT22;7466;53.574;9.976;2023-04-06T06:27:20;3.10;99.90
14749;DHT22;7466;53.574;9.976;2023-04-06T06:29:47;3.20;99.90
14749;DHT22;7466;53.574;9.976;2023-04-06T06:32:15;3.30;99.90
14749;DHT22;7466;53.574;9.976;2023-04-06T06:34:42;3.50;99.90
14749;DHT22;7466;53.574;9.976;2023-04-06T06:37:09;3.60;99.90
14749;DHT22;7466;53.574;9.976;2023-04-06T06:39:36;3.70;99.90
14749;DHT22;7466;53.574;9.976;2023-04-06T06:42:03;3.80;99.90
14749;DHT22;7466;53.574;9.976;2023-04-06T06:44:30;3.90;99.90
14749;DHT22;7466;53.574;9.976;2023-04-06T06:46:57;4.10;99.90
14749;DHT22;7466;53.574;9.976;2023-04-06T06:49:26;4.10;99.90
14749;DHT22;7466;53.574;9.976;2023-04-06T06:51:53;4.30;99.90
14749;DHT22;7466;53.574;9.976;2023-04-06T06:54:20;4.40;99.90
14749;DHT22;7466;53.574;9.976;2023-04-06T06:56:47;4.60;99.90
14749;DHT22;7466;53.574;9.976;2023-04-06T06:59:15;4.80;99.90
14749;DHT22;7466;53.574;9.976;2023-04-06T07:01:43;4.80;99.90
14749;DHT22;7466;53.574;9.976;2023-04-06T07:04:10;4.80;99.90
14749;DHT22;7466;53.574;9.976;2023-04-06T07:06:38;4.90;99.90
14749;DHT22;7466;53.574;9.976;2023-04-06T07:09:05;5.00;99.90
14749;DHT22;7466;53.574;9.976;2023-04-06T07:11:37;5.10;99.90
14749;DHT22;7466;53.574;9.976;2023-04-06T07:14:07;5.30;99.90
14749;DHT22;7466;53.574;9.976;2023-04-06T07:16:34;5.50;99.90
14749;DHT22;7466;53.574;9.976;2023-04-06T07:19:01;5.60;99.90
14749;DHT22;7466;53.574;9.976;2023-04-06T07:21:29;5.70;99.90
14749;DHT22;7466;53.574;9.976;2023-04-06T07:24:02;5.60;99.90
14749;DHT22;7466;53.574;9.976;2023-04-06T07:26:31;5.80;99.90
14749;DHT22;7466;53.574;9.976;2023-04-06T07:28:58;5.90;99.90
14749;DHT22;7466;53.574;9.976;2023-04-06T07:31:25;5.90;99.90
14749;DHT22;7466;53.574;9.976;2023-04-06T07:33:52;5.90;99.90
14749;DHT22;7466;53.574;9.976;2023-04-06T07:36:22;6.20;99.90
14749;DHT22;7466;53.574;9.976;2023-04-06T07:38:49;6.30;99.90
14749;DHT22;7466;53.574;9.976;2023-04-06T07:41:18;6.40;99.90
14749;DHT22;7466;53.574;9.976;2023-04-06T07:43:45;6.40;99.90
14749;DHT22;7466;53.574;9.976;2023-04-06T07:46:13;6.50;99.90
14749;DHT22;7466;53.574;9.976;2023-04-06T07:48:40;6.60;99.90
14749;DHT22;7466;53.574;9.976;2023-04-06T07:51:07;6.50;99.90
14749;DHT22;7466;53.574;9.976;2023-04-06T07:53:39;6.60;99.90
14749;DHT22;7466;53.574;9.976;2023-04-06T07:56:06;6.60;99.90
14749;DHT22;7466;53.574;9.976;2023-04-06T07:58:35;6.90;99.90
14749;DHT22;7466;53.574;9.976;2023-04-06T08:01:02;7.00;99.90
14749;DHT22;7466;53.574;9.976;2023-04-06T08:03:29;7.20;99.90
14749;DHT22;7466;53.574;9.976;2023-04-06T08:05:56;7.20;99.90
14749;DHT22;7466;53.574;9.976;2023-04-06T08:08:23;7.00;99.90
14749;DHT22;7466;53.574;9.976;2023-04-06T08:10:50;7.30;99.90
14749;DHT22;7466;53.574;9.976;2023-04-06T08:13:17;7.50;99.90
14749;DHT22;7466;53.574;9.976;2023-04-06T08:15:46;7.70;99.90
14749;DHT22;7466;53.574;9.976;2023-04-06T08:18:13;7.80;99.90
14749;DHT22;7466;53.574;9.976;2023-04-06T08:20:40;7.70;99.90
14749;DHT22;7466;53.574;9.976;2023-04-06T08:23:07;7.70;99.90
14749;DHT22;7466;53.574;9.976;2023-04-06T08:25:38;7.80;99.90
14749;DHT22;7466;53.574;9.976;2023-04-06T08:28:05;7.90;99.90
14749;DHT22;7466;53.574;9.976;2023-04-06T08:30:34;8.10;99.90
14749;DHT22;7466;53.574;9.976;2023-04-06T08:33:02;7.80;99.90
14749;DHT22;7466;53.574;9.976;2023-04-06T08:35:30;7.90;99.90
14749;DHT22;7466;53.574;9.976;2023-04-06T08:37:57;8.20;99.90
14749;DHT22;7466;53.574;9.976;2023-04-06T08:40:24;8.30;99.90
14749;DHT22;7466;53.574;9.976;2023-04-06T08:42:54;8.20;99.90
14749;DHT22;7466;53.574;9.976;2023-04-06T08:45:22;8.40;99.90
14749;DHT22;7466;53.574;9.976;2023-04-06T08:47:50;8.60;99.90
14749;DHT22;7466;53.574;9.976;2023-04-06T08:50:19;8.60;99.90
14749;DHT22;7466;53.574;9.976;2023-04-06T08:52:47;8.80;99.90
14749;DHT22;7466;53.574;9.976;2023-04-06T08:55:15;8.90;99.90
14749;DHT22;7466;53.574;9.976;2023-04-06T08:57:42;9.10;99.90
14749;DHT22;7466;53.574;9.976;2023-04-06T09:00:11;9.00;97.90
14749;DHT22;7466;53.574;9.976;2023-04-06T09:02:39;9.20;99.90
14749;DHT22;7466;53.574;9.976;2023-04-06T09:05:08;9.30;94.40
14749;DHT22;7466;53.574;9.976;2023-04-06T09:07:36;9.30;91.60
14749;DHT22;7466;53.574;9.976;2023-04-06T09:10:04;9.80;90.90
14749;DHT22;7466;53.574;9.976;2023-04-06T09:12:32;10.20;90.40
14749;DHT22;7466;53.574;9.976;2023-04-06T09:15:01;10.60;84.60
14749;DHT22;7466;53.574;9.976;2023-04-06T09:17:30;10.60;81.00
14749;DHT22;7466;53.574;9.976;2023-04-06T09:19:58;10.60;79.20
14749;DHT22;7466;53.574;9.976;2023-04-06T09:22:35;11.00;77.40
14749;DHT22;7466;53.574;9.976;2023-04-06T09:25:03;10.90;73.50
14749;DHT22;7466;53.574;9.976;2023-04-06T09:27:30;11.00;72.90
14749;DHT22;7466;53.574;9.976;2023-04-06T09:30:04;11.20;72.00
14749;DHT22;7466;53.574;9.976;2023-04-06T09:32:32;10.90;71.80
14749;DHT22;7466;53.574;9.976;2023-04-06T09:35:06;11.10;72.80
14749;DHT22;7466;53.574;9.976;2023-04-06T09:37:33;10.90;74.20
14749;DHT22;7466;53.574;9.976;2023-04-06T09:40:06;11.00;75.10
14749;DHT22;7466;53.574;9.976;2023-04-06T09:42:34;11.10;72.70
14749;DHT22;7466;53.574;9.976;2023-04-06T09:45:01;10.80;76.10
14749;DHT22;7466;53.574;9.976;2023-04-06T09:47:29;10.90;75.40
14749;DHT22;7466;53.574;9.976;2023-04-06T09:49:58;11.30;75.70
14749;DHT22;7466;53.574;9.976;2023-04-06T09:52:28;11.70;71.40
14749;DHT22;7466;53.574;9.976;2023-04-06T09:55:02;12.20;71.80
14749;DHT22;7466;53.574;9.976;2023-04-06T09:57:35;11.40;68.60
14749;DHT22;7466;53.574;9.976;2023-04-06T10:00:04;11.80;65.10
14749;DHT22;7466;53.574;9.976;2023-04-06T10:02:42;12.20;64.00
14749;DHT22;7466;53.574;9.976;2023-04-06T10:05:19;12.70;61.00
14749;DHT22;7466;53.574;9.976;2023-04-06T10:07:48;12.80;59.60
14749;DHT22;7466;53.574;9.976;2023-04-06T10:10:17;12.70;59.00
14749;DHT22;7466;53.574;9.976;2023-04-06T10:12:47;12.20;59.60
14749;DHT22;7466;53.574;9.976;2023-04-06T10:15:15;12.20;59.70
14749;DHT22;7466;53.574;9.976;2023-04-06T10:17:43;12.40;59.60
14749;DHT22;7466;53.574;9.976;2023-04-06T10:20:17;12.30;59.70
14749;DHT22;7466;53.574;9.976;2023-04-06T10:22:53;12.70;59.20
14749;DHT22;7466;53.574;9.976;2023-04-06T10:25:33;12.70;58.60
14749;DHT22;7466;53.574;9.976;2023-04-06T10:28:05;12.80;57.50
14749;DHT22;7466;53.574;9.976;2023-04-06T10:30:33;12.90;57.60
14749;DHT22;7466;53.574;9.976;2023-04-06T10:33:13;13.60;57.80
14749;DHT22;7466;53.574;9.976;2023-04-06T10:35:40;13.30;57.00
14749;DHT22;7466;53.574;9.976;2023-04-06T10:38:08;13.10;56.70
14749;DHT22;7466;53.574;9.976;2023-04-06T10:40:36;12.90;56.90
14749;DHT22;7466;53.574;9.976;2023-04-06T10:43:13;12.50;58.10
14749;DHT22;7466;53.574;9.976;2023-04-06T10:45:41;12.50;58.80
14749;DHT22;7466;53.574;9.976;2023-04-06T10:48:14;12.90;57.90
14749;DHT22;7466;53.574;9.976;2023-04-06T10:50:44;13.00;58.30
14749;DHT22;7466;53.574;9.976;2023-04-06T10:53:12;12.70;58.20
14749;DHT22;7466;53.574;9.976;2023-04-06T10:55:47;13.20;59.00
14749;DHT22;7466;53.574;9.976;2023-04-06T10:58:17;13.80;57.40
14749;DHT22;7466;53.574;9.976;2023-04-06T11:00:45;13.60;57.20
14749;DHT22;7466;53.574;9.976;2023-04-06T11:03:12;13.20;56.60
14749;DHT22;7466;53.574;9.976;2023-04-06T11:05:42;13.20;57.40
14749;DHT22;7466;53.574;9.976;2023-04-06T11:08:22;13.70;57.20
14749;DHT22;7466;53.574;9.976;2023-04-06T11:10:50;13.60;56.00
14749;DHT22;7466;53.574;9.976;2023-04-06T11:13:18;13.40;57.00
14749;DHT22;7466;53.574;9.976;2023-04-06T11:15:46;13.90;56.80
14749;DHT22;7466;53.574;9.976;2023-04-06T11:18:17;13.80;56.80
14749;DHT22;7466;53.574;9.976;2023-04-06T11:20:47;13.90;56.50
14749;DHT22;7466;53.574;9.976;2023-04-06T11:23:22;13.80;56.30
14749;DHT22;7466;53.574;9.976;2023-04-06T11:25:52;14.60;55.50
14749;DHT22;7466;53.574;9.976;2023-04-06T11:28:20;14.50;55.00
14749;DHT22;7466;53.574;9.976;2023-04-06T11:30:51;14.30;55.40
14749;DHT22;7466;53.574;9.976;2023-04-06T11:33:22;14.40;55.80
14749;DHT22;7466;53.574;9.976;2023-04-06T11:35:50;15.00;54.70
14749;DHT22;7466;53.574;9.976;2023-04-06T11:38:18;15.30;53.60
14749;DHT22;7466;53.574;9.976;2023-04-06T11:40:45;14.50;54.40
14749;DHT22;7466;53.574;9.976;2023-04-06T11:43:12;14.60;54.60
14749;DHT22;7466;53.574;9.976;2023-04-06T11:45:41;14.70;54.50
14749;DHT22;7466;53.574;9.976;2023-04-06T11:48:18;14.70;54.10
14749;DHT22;7466;53.574;9.976;2023-04-06T11:50:46;14.70;54.50
14749;DHT22;7466;53.574;9.976;2023-04-06T11:53:14;15.30;54.60
14749;DHT22;7466;53.574;9.976;2023-04-06T11:55:41;15.20;53.30
14749;DHT22;7466;53.574;9.976;2023-04-06T11:58:11;15.00;54.60
14749;DHT22;7466;53.574;9.976;2023-04-06T12:00:40;15.40;53.70
14749;DHT22;7466;53.574;9.976;2023-04-06T12:03:13;16.00;52.70
14749;DHT22;7466;53.574;9.976;2023-04-06T12:05:41;15.80;51.70
14749;DHT22;7466;53.574;9.976;2023-04-06T12:08:08;15.40;52.00
14749;DHT22;7466;53.574;9.976;2023-04-06T12:10:35;15.60;51.80
14749;DHT22;7466;53.574;9.976;2023-04-06T12:13:02;15.10;52.40
14749;DHT22;7466;53.574;9.976;2023-04-06T12:15:30;15.80;52.50
14749;DHT22;7466;53.574;9.976;2023-04-06T12:17:58;16.50;51.80
14749;DHT22;7466;53.574;9.976;2023-04-06T12:20:25;15.50;52.00
14749;DHT22;7466;53.574;9.976;2023-04-06T12:22:53;16.00;51.50
14749;DHT22;7466;53.574;9.976;2023-04-06T12:25:20;16.60;50.90
14749;DHT22;7466;53.574;9.976;2023-04-06T12:27:47;16.00;50.50
14749;DHT22;7466;53.574;9.976;2023-04-06T12:30:15;16.50;50.80
14749;DHT22;7466;53.574;9.976;2023-04-06T12:32:47;16.50;50.20
14749;DHT22;7466;53.574;9.976;2023-04-06T12:35:17;17.00;50.70
14749;DHT22;7466;53.574;9.976;2023-04-06T12:37:47;16.60;49.70
14749;DHT22;7466;53.574;9.976;2023-04-06T12:40:14;16.40;49.90
14749;DHT22;7466;53.574;9.976;2023-04-06T12:42:42;16.20;50.20
14749;DHT22;7466;53.574;9.976;2023-04-06T12:45:10;15.50;51.20
14749;DHT22;7466;53.574;9.976;2023-04-06T12:47:37;15.70;52.00
14749;DHT22;7466;53.574;9.976;2023-04-06T12:50:06;16.00;52.00
14749;DHT22;7466;53.574;9.976;2023-04-06T12:52:34;15.80;51.80
14749;DHT22;7466;53.574;9.976;2023-04-06T12:55:02;15.80;51.40
14749;DHT22;7466;53.574;9.976;2023-04-06T12:57:30;16.00;51.50
14749;DHT22;7466;53.574;9.976;2023-04-06T13:00:06;16.20;51.60
14749;DHT22;7466;53.574;9.976;2023-04-06T13:02:40;15.80;51.20
14749;DHT22;7466;53.574;9.976;2023-04-06T13:05:12;16.40;51.30
14749;DHT22;7466;53.574;9.976;2023-04-06T13:07:40;16.60;50.80
14749;DHT22;7466;53.574;9.976;2023-04-06T13:10:08;16.50;50.40
14749;DHT22;7466;53.574;9.976;2023-04-06T13:12:35;17.20;50.60
14749;DHT22;7466;53.574;9.976;2023-04-06T13:15:03;17.80;48.60
14749;DHT22;7466;53.574;9.976;2023-04-06T13:17:31;18.00;48.00
14749;DHT22;7466;53.574;9.976;2023-04-06T13:19:58;18.50;47.60
14749;DHT22;7466;53.574;9.976;2023-04-06T13:22:25;18.70;46.80
14749;DHT22;7466;53.574;9.976;2023-04-06T13:25:05;19.70;45.60
14749;DHT22;7466;53.574;9.976;2023-04-06T13:27:33;19.10;44.90
14749;DHT22;7466;53.574;9.976;2023-04-06T13:30:01;19.50;45.30
14749;DHT22;7466;53.574;9.976;2023-04-06T13:32:29;19.60;44.50
14749;DHT22;7466;53.574;9.976;2023-04-06T13:34:56;19.70;44.00
14749;DHT22;7466;53.574;9.976;2023-04-06T13:37:26;19.10;44.60
14749;DHT22;7466;53.574;9.976;2023-04-06T13:39:55;19.90;44.70
14749;DHT22;7466;53.574;9.976;2023-04-06T13:42:24;18.70;44.30
14749;DHT22;7466;53.574;9.976;2023-04-06T13:45:11;18.40;45.70
14749;DHT22;7466;53.574;9.976;2023-04-06T13:47:53;17.10;47.20
14749;DHT22;7466;53.574;9.976;2023-04-06T13:50:40;17.00;48.20
14749;DHT22;7466;53.574;9.976;2023-04-06T13:53:07;16.10;49.80
14749;DHT22;7466;53.574;9.976;2023-04-06T13:55:34;16.10;50.00
14749;DHT22;7466;53.574;9.976;2023-04-06T13:58:03;15.30;50.90
14749;DHT22;7466;53.574;9.976;2023-04-06T14:00:30;15.10;51.60
14749;DHT22;7466;53.574;9.976;2023-04-06T14:03:08;15.30;51.60
14749;DHT22;7466;53.574;9.976;2023-04-06T14:05:41;14.90;52.40
14749;DHT22;7466;53.574;9.976;2023-04-06T14:08:08;14.60;52.60
14749;DHT22;7466;53.574;9.976;2023-04-06T14:10:39;14.30;53.90
14749;DHT22;7466;53.574;9.976;2023-04-06T14:13:09;14.50;53.60
14749;DHT22;7466;53.574;9.976;2023-04-06T14:15:37;14.30;54.00
14749;DHT22;7466;53.574;9.976;2023-04-06T14:18:04;14.20;54.10
14749;DHT22;7466;53.574;9.976;2023-04-06T14:20:31;14.30;54.10
14749;DHT22;7466;53.574;9.976;2023-04-06T14:22:59;13.90;54.50
14749;DHT22;7466;53.574;9.976;2023-04-06T14:25:27;13.90;55.50
14749;DHT22;7466;53.574;9.976;2023-04-06T14:27:56;13.60;55.60
14749;DHT22;7466;53.574;9.976;2023-04-06T14:30:25;13.50;56.00
14749;DHT22;7466;53.574;9.976;2023-04-06T14:32:56;13.40;55.60
14749;DHT22;7466;53.574;9.976;2023-04-06T14:35:38;13.30;55.90
14749;DHT22;7466;53.574;9.976;2023-04-06T14:38:05;13.20;56.20
14749;DHT22;7466;53.574;9.976;2023-04-06T14:40:37;13.20;56.30
14749;DHT22;7466;53.574;9.976;2023-04-06T14:43:05;13.50;56.10
14749;DHT22;7466;53.574;9.976;2023-04-06T14:45:35;13.60;55.90
14749;DHT22;7466;53.574;9.976;2023-04-06T14:48:02;13.50;55.90
14749;DHT22;7466;53.574;9.976;2023-04-06T14:50:38;13.30;57.00
14749;DHT22;7466;53.574;9.976;2023-04-06T14:53:06;13.30;57.10
14749;DHT22;7466;53.574;9.976;2023-04-06T14:55:39;13.30;57.70
14749;DHT22;7466;53.574;9.976;2023-04-06T14:58:10;13.30;58.20
14749;DHT22;7466;53.574;9.976;2023-04-06T15:00:40;13.40;58.00
14749;DHT22;7466;53.574;9.976;2023-04-06T15:03:07;13.40;56.40
14749;DHT22;7466;53.574;9.976;2023-04-06T15:05:34;13.40;56.60
14749;DHT22;7466;53.574;9.976;2023-04-06T15:08:01;13.30;57.00
14749;DHT22;7466;53.574;9.976;2023-04-06T15:10:33;13.40;57.40
14749;DHT22;7466;53.574;9.976;2023-04-06T15:13:15;13.40;57.50
14749;DHT22;7466;53.574;9.976;2023-04-06T15:15:49;13.40;57.60
14749;DHT22;7466;53.574;9.976;2023-04-06T15:18:19;13.20;58.00
14749;DHT22;7466;53.574;9.976;2023-04-06T15:20:46;13.10;57.50
14749;DHT22;7466;53.574;9.976;2023-04-06T15:23:13;13.00;57.90
14749;DHT22;7466;53.574;9.976;2023-04-06T15:25:41;13.00;58.40
14749;DHT22;7466;53.574;9.976;2023-04-06T15:28:08;13.00;58.40
14749;DHT22;7466;53.574;9.976;2023-04-06T15:30:35;13.10;58.50
14749;DHT22;7466;53.574;9.976;2023-04-06T15:33:08;13.00;58.80
14749;DHT22;7466;53.574;9.976;2023-04-06T15:35:37;12.90;58.40
14749;DHT22;7466;53.574;9.976;2023-04-06T15:38:05;12.80;58.30
14749;DHT22;7466;53.574;9.976;2023-04-06T15:40:33;12.90;58.60
14749;DHT22;7466;53.574;9.976;2023-04-06T15:43:02;12.80;58.90
14749;DHT22;7466;53.574;9.976;2023-04-06T15:45:40;12.80;58.80
14749;DHT22;7466;53.574;9.976;2023-04-06T15:48:11;12.80;59.80
14749;DHT22;7466;53.574;9.976;2023-04-06T15:50:38;12.70;59.90
14749;DHT22;7466;53.574;9.976;2023-04-06T15:53:05;12.80;58.80
14749;DHT22;7466;53.574;9.976;2023-04-06T15:55:42;12.90;58.60
14749;DHT22;7466;53.574;9.976;2023-04-06T15:58:09;12.80;58.90
14749;DHT22;7466;53.574;9.976;2023-04-06T16:00:50;12.70;59.00
14749;DHT22;7466;53.574;9.976;2023-04-06T16:03:19;12.70;59.40